Terminal Aerodrome Forecast
Issued by NWS

Home | Current Version | Previous Version | Text Only | Print | Product List | Glossary On
Versions: 1 2 3 4 5 6 7 8 9 10 11 12 13 14 15 16 17 18
000
FTUS43 KMKX 202321
TAFENW
TAF
KENW 202321Z 2100/2124 15015KT P6SM OVC080 WS020/17045KT
     FM210700 19011KT 5SM -SHRA BR SCT030 OVC045
     FM210900 19010KT 5SM -SHRA BR OVC025
     FM211200 23006KT 3SM BR VCSH SCT008 OVC015
     FM211400 25008KT 3SM BR BKN008
     FM211700 28008KT 3SM BR SCT010
     FM211800 28007KT P6SM SCT050
     FM212300 22005KT P6SM FEW250=

USA.gov is the U.S. government's official web portal to all federal, state and local government web resources and services.